createdAt,value
2018-10-18T00:04:15.587Z,13.4
2018-10-18T00:09:17.789Z,13.4
2018-10-18T00:14:20.143Z,13.4
2018-10-18T00:19:22.467Z,13.4
2018-10-18T00:24:24.707Z,13.4
2018-10-18T00:29:27.011Z,13.4
2018-10-18T00:34:29.241Z,13.4
2018-10-18T00:39:31.765Z,13.3
2018-10-18T00:44:33.863Z,13.4
2018-10-18T00:49:36.141Z,13.4
2018-10-18T00:54:38.550Z,13.4
2018-10-18T00:59:40.785Z,13.4
2018-10-18T01:04:43.006Z,13.4
2018-10-18T01:09:45.397Z,13.4
2018-10-18T01:14:48.713Z,13.4
2018-10-18T01:19:49.906Z,13.3
2018-10-18T01:24:52.282Z,13.3
2018-10-18T01:29:54.641Z,13.2
2018-10-18T01:34:56.829Z,13.1
2018-10-18T01:39:59.118Z,13
2018-10-18T01:45:01.474Z,13
2018-10-18T01:50:03.848Z,12.9
2018-10-18T01:55:06.044Z,12.8
2018-10-18T02:00:08.289Z,12.7
2018-10-18T02:05:10.779Z,12.6
2018-10-18T02:10:12.855Z,12.6
2018-10-18T02:15:15.243Z,12.5
2018-10-18T02:20:17.420Z,12.4
2018-10-18T02:25:19.913Z,12.3
2018-10-18T02:30:22.340Z,12.3
2018-10-18T02:35:24.300Z,12.2
2018-10-18T02:40:26.585Z,12.2
2018-10-18T02:45:28.903Z,12.1
2018-10-18T02:50:31.282Z,12.1
2018-10-18T02:55:33.719Z,12
2018-10-18T03:00:36.074Z,11.9
2018-10-18T03:05:38.171Z,11.9
2018-10-18T03:10:40.468Z,11.9
2018-10-18T03:20:45.073Z,11.8
2018-10-18T03:25:47.329Z,11.8
2018-10-18T03:30:49.579Z,11.7
2018-10-18T03:35:52.019Z,11.7
2018-10-18T03:40:54.263Z,11.6
2018-10-18T03:45:56.463Z,11.5
2018-10-18T03:50:58.849Z,11.5
2018-10-18T03:56:01.029Z,11.4
2018-10-18T04:01:03.409Z,11.2
2018-10-18T04:06:05.870Z,11.1
2018-10-18T04:11:07.948Z,11
2018-10-18T04:16:10.235Z,10.9
2018-10-18T04:21:12.552Z,10.8
2018-10-18T04:26:14.943Z,10.7
2018-10-18T04:31:18.293Z,10.6
2018-10-18T04:36:21.250Z,10.6
2018-10-18T04:41:21.821Z,10.5
2018-10-18T04:46:24.074Z,10.4
2018-10-18T04:51:26.279Z,10.3
2018-10-18T04:56:28.580Z,10.2
2018-10-18T05:01:30.901Z,10.1
2018-10-18T05:06:33.172Z,10
2018-10-18T05:11:35.487Z,9.9
2018-10-18T05:16:37.804Z,9.9
2018-10-18T05:21:40.092Z,9.9
2018-10-18T05:26:42.405Z,9.9
2018-10-18T05:31:44.705Z,9.8
2018-10-18T05:36:47.035Z,9.6
2018-10-18T05:41:50.308Z,9.5
2018-10-18T05:51:53.788Z,9.4
2018-10-18T05:56:56.172Z,9.4
2018-10-18T06:01:58.480Z,9.5
2018-10-18T06:07:00.752Z,9.8
2018-10-18T06:12:03.006Z,10.1
2018-10-18T06:17:05.352Z,10.3
2018-10-18T06:22:07.664Z,10.5
2018-10-18T06:27:09.927Z,10.6
2018-10-18T06:32:12.171Z,10.8
2018-10-18T06:37:14.541Z,10.9
2018-10-18T06:42:16.781Z,10.9
2018-10-18T06:47:19.092Z,11
2018-10-18T06:52:21.466Z,11.1
2018-10-18T06:57:23.640Z,11.2
2018-10-18T07:02:25.915Z,11.2
2018-10-18T07:07:28.334Z,11.2
2018-10-18T07:12:30.468Z,11.2
2018-10-18T07:17:32.880Z,11.3
2018-10-18T07:22:35.213Z,11.4
2018-10-18T07:27:37.366Z,11.6
2018-10-18T07:32:39.676Z,11.9
2018-10-18T07:37:41.987Z,12.1
2018-10-18T07:42:44.413Z,12.3
2018-10-18T07:47:47.623Z,12.6
2018-10-18T07:52:50.110Z,12.9
2018-10-18T07:57:51.196Z,13.1
2018-10-18T08:02:53.544Z,13.2
2018-10-18T08:07:55.781Z,13.4
2018-10-18T08:12:58.205Z,13.6
2018-10-18T08:18:00.308Z,13.7
2018-10-18T08:23:02.671Z,14
2018-10-18T08:28:04.985Z,14.3
2018-10-18T08:33:07.213Z,14.4
2018-10-18T08:38:09.599Z,14.5
2018-10-18T08:43:12.048Z,14.3
2018-10-18T08:48:14.219Z,14
2018-10-18T08:53:20.661Z,14.1
2018-10-18T08:58:18.836Z,14.5
2018-10-18T09:03:20.979Z,14.7
2018-10-18T09:08:23.365Z,15
2018-10-18T09:13:25.564Z,15.3
2018-10-18T09:18:27.928Z,15.8
2018-10-18T09:23:30.279Z,15.9
2018-10-18T09:28:32.447Z,15.8
2018-10-18T09:33:34.798Z,16
2018-10-18T09:38:37.036Z,16.299999
2018-10-18T09:43:39.333Z,16.5
2018-10-18T09:48:41.686Z,16.1
2018-10-18T09:53:45.011Z,15.7
2018-10-18T09:58:46.252Z,15.2
2018-10-18T10:03:48.523Z,14.9
2018-10-18T10:08:52.082Z,14.7
2018-10-18T10:13:54.633Z,14.6
2018-10-18T10:18:55.412Z,14.8
2018-10-18T10:23:57.759Z,15.5
2018-10-18T10:28:59.982Z,16.200001
2018-10-18T10:34:02.309Z,16.799999
2018-10-18T10:39:06.098Z,17.1
2018-10-18T10:44:07.026Z,17
2018-10-18T10:49:09.252Z,17.299999
2018-10-18T10:54:11.666Z,17.5
2018-10-18T10:59:13.860Z,17.1
2018-10-18T11:04:16.066Z,16.6
2018-10-18T11:09:18.442Z,16.299999
2018-10-18T11:14:20.674Z,16.1
2018-10-18T11:19:22.920Z,15.8
2018-10-18T11:24:25.292Z,15.7
2018-10-18T11:29:27.508Z,15.5
2018-10-18T11:34:29.881Z,15.7
2018-10-18T11:39:32.198Z,15.8
2018-10-18T11:44:34.376Z,15.9
2018-10-18T11:49:36.671Z,16
2018-10-18T11:54:38.996Z,16.1
2018-10-18T11:59:41.421Z,16.200001
2018-10-18T12:04:43.624Z,16.4
2018-10-18T12:09:45.863Z,16.5
2018-10-18T12:14:48.304Z,16.700001
2018-10-18T12:19:50.466Z,16.799999
2018-10-18T12:24:52.820Z,16.799999
2018-10-18T12:29:55.265Z,16.700001
2018-10-18T12:34:58.595Z,16.6
2018-10-18T12:40:02.069Z,16.6
2018-10-18T12:45:02.074Z,16.6
2018-10-18T12:50:04.306Z,16.4
2018-10-18T12:55:06.594Z,16.299999
2018-10-18T13:00:08.957Z,16.200001
2018-10-18T13:05:11.210Z,16.1
2018-10-18T13:10:13.419Z,16.200001
2018-10-18T13:15:15.727Z,16.299999
2018-10-18T13:20:18.151Z,16.299999
2018-10-18T13:25:20.371Z,16.299999
2018-10-18T13:30:22.583Z,16.200001
2018-10-18T13:35:24.859Z,16.200001
2018-10-18T13:40:27.192Z,16.200001
2018-10-18T13:45:29.586Z,16.200001
2018-10-18T13:50:31.803Z,16.200001
2018-10-18T13:55:34.061Z,16.200001
2018-10-18T14:00:37.413Z,16.299999
2018-10-18T14:05:40.527Z,16.200001
2018-10-18T14:10:40.893Z,16.1
2018-10-18T14:15:44.399Z,16.1
2018-10-18T14:20:45.536Z,16.1
2018-10-18T14:25:47.837Z,16.1
2018-10-18T14:30:50.221Z,16.1
2018-10-18T14:35:52.432Z,16.1
2018-10-18T14:40:54.724Z,16
2018-10-18T14:45:57.137Z,15.9
2018-10-18T14:50:59.492Z,16
2018-10-18T14:56:01.671Z,16.1
2018-10-18T15:01:03.868Z,16
2018-10-18T15:06:06.339Z,15.8
2018-10-18T15:11:08.517Z,15.7
2018-10-18T15:16:10.708Z,15.6
2018-10-18T15:21:14.558Z,15.5
2018-10-18T15:26:15.386Z,15.5
2018-10-18T15:31:17.686Z,15.4
2018-10-18T15:36:19.938Z,15.4
2018-10-18T15:41:23.343Z,15.3
2018-10-18T15:46:25.915Z,15.3
2018-10-18T15:51:26.756Z,15.2
2018-10-18T15:56:29.267Z,15.1
2018-10-18T16:01:31.382Z,15.1
2018-10-18T16:06:33.725Z,15.1
2018-10-18T16:11:36.037Z,15.1
2018-10-18T16:16:38.279Z,15
2018-10-18T16:21:40.599Z,15
2018-10-18T16:26:42.916Z,14.9
2018-10-18T16:31:45.192Z,14.9
2018-10-18T16:36:47.482Z,14.8
2018-10-18T16:41:49.914Z,14.8
2018-10-18T16:46:52.166Z,14.8
2018-10-18T16:51:54.373Z,14.7
2018-10-18T16:56:56.706Z,14.7
2018-10-18T17:01:59.097Z,14.6
2018-10-18T17:07:01.327Z,14.5
2018-10-18T17:12:03.602Z,14.5
2018-10-18T17:17:06.903Z,14.4
2018-10-18T17:22:09.892Z,14.4
2018-10-18T17:27:10.603Z,14.3
2018-10-18T17:32:12.825Z,14.2
2018-10-18T17:37:15.031Z,14.2
2018-10-18T17:42:17.360Z,14.1
2018-10-18T17:47:19.635Z,14.1
2018-10-18T17:52:22.024Z,14
2018-10-18T17:57:24.204Z,14
2018-10-18T18:02:26.419Z,14
2018-10-18T18:07:28.732Z,14
2018-10-18T18:12:31.081Z,13.9
2018-10-18T18:17:33.279Z,13.9
2018-10-18T18:22:35.701Z,13.9
2018-10-18T18:27:38.032Z,13.8
2018-10-18T18:37:42.609Z,13.7
2018-10-18T18:42:44.890Z,13.8
2018-10-18T18:47:47.098Z,13.7
2018-10-18T18:52:49.486Z,13.7
2018-10-18T18:57:51.802Z,13.6
2018-10-18T19:02:54.014Z,13.6
2018-10-18T19:07:56.256Z,13.6
2018-10-18T19:12:58.534Z,13.5
2018-10-18T19:18:00.810Z,13.5
2018-10-18T19:23:03.210Z,13.5
2018-10-18T19:28:05.434Z,13.5
2018-10-18T19:33:07.712Z,13.4
2018-10-18T19:38:10.100Z,13.4
2018-10-18T19:43:12.541Z,13.4
2018-10-18T19:48:14.597Z,13.4
2018-10-18T19:53:16.874Z,13.3
2018-10-18T19:58:19.280Z,13.3
2018-10-18T20:03:21.530Z,13.3
2018-10-18T20:08:23.942Z,13.3
2018-10-18T20:13:26.226Z,13.3
2018-10-18T20:18:28.416Z,13.2
2018-10-18T20:23:30.661Z,13.2
2018-10-18T20:28:32.991Z,13.2
2018-10-18T20:33:35.432Z,13.2
2018-10-18T20:38:37.592Z,13.2
2018-10-18T20:43:39.891Z,13.2
2018-10-18T20:48:42.246Z,13.2
2018-10-18T20:53:44.436Z,13.1
2018-10-18T20:58:46.830Z,13.1
2018-10-18T21:03:49.067Z,13.1
2018-10-18T21:08:51.342Z,13.1
2018-10-18T21:13:53.638Z,13.1
2018-10-18T21:18:55.952Z,13.1
2018-10-18T21:23:58.442Z,13.1
2018-10-18T21:34:02.773Z,13.1
2018-10-18T21:39:05.048Z,13.1
2018-10-18T21:44:07.572Z,13.1
2018-10-18T21:49:09.668Z,13.1
2018-10-18T21:54:12.138Z,13.1
2018-10-18T21:59:14.369Z,13
2018-10-18T22:04:16.507Z,13.1
2018-10-18T22:09:18.889Z,13.1
2018-10-18T22:14:21.207Z,13
2018-10-18T22:19:23.441Z,12.9
2018-10-18T22:29:27.971Z,12.7
2018-10-18T22:34:30.349Z,12.6
2018-10-18T22:39:32.686Z,12.5
2018-10-18T22:44:34.926Z,12.5
2018-10-18T22:49:37.198Z,12.5
2018-10-18T22:54:39.589Z,12.4
2018-10-18T22:59:41.894Z,12.4
2018-10-18T23:04:44.137Z,12.4
2018-10-18T23:09:46.526Z,12.3
2018-10-18T23:14:48.643Z,12.4
2018-10-18T23:19:51.022Z,12.4
2018-10-18T23:24:53.332Z,12.3
2018-10-18T23:29:55.648Z,12.3
2018-10-18T23:34:57.895Z,12.1
2018-10-18T23:40:00.256Z,12
2018-10-18T23:45:02.564Z,11.9
2018-10-18T23:50:04.710Z,11.8
2018-10-18T23:55:07.185Z,11.7
